Kota Kinabalu, Malaysia
Current Conditions -  °F | °C
As of 11:00 PM on Wednesday 26 Nov 2014 (Local Time) from WBKK Reporting Station
Broken Clouds Broken Clouds  
Wind Chill: 79°   Ceiling: 27000
Heat Index: 82°   Visibility: 6mi
Dew Point: 73°   Wind: 5mph
Humidity: 83%   Direction: 110°ESE
Pressure: 29.77"   Gusts: NA
Location:  5.97°N, 116.07°E
Report Text: WBKK 261500Z 11004KT 9999 FEW014 SCT140 BKN270 26/23 Q1008 NOSIG
Loading
Personal Weather Stations






























Interactive Weather Map New forecast layout! Learn more

10-Day Weather Forecast

Advertisements
Track Severe Weather on mobile